Terminal Aerodrome Forecast
Issued by NWS Sioux Falls, SD

Home | Current Version | Previous Version | Graphics & Text | Print | Product List | Glossary Off
Versions: 1 2 3 4 5 6 7 8 9 10 11 12 13 14 15 16 17

000
FTUS43 KFSD 162346
TAFFSD
TAF
KFSD 162346Z 1700/1724 16016KT P6SM SCT250
     FM171000 18013G21KT P6SM BKN060
     FM171100 18012KT P6SM BKN030
     FM171200 18009KT P6SM OVC003
      TEMPO 1712/1714 1SM BR OVC003
     FM171600 23007KT P6SM OVC008
     FM171700 30007KT P6SM OVC010
     FM172200 35010KT P6SM OVC045=

USA.gov is the U.S. government's official web portal to all federal, state and local government web resources and services.